createdAt,value
2022-10-18T00:00:22.554Z,61.20
2022-10-18T00:02:49.767Z,61.10
2022-10-18T00:05:17.198Z,58.23
2022-10-18T00:07:44.417Z,63.50
2022-10-18T00:10:11.632Z,69.10
2022-10-18T00:12:38.915Z,65.27
2022-10-18T00:15:09.033Z,65.83
2022-10-18T00:17:37.069Z,68.63
2022-10-18T00:20:05.588Z,67.60
2022-10-18T00:22:34.530Z,65.90
2022-10-18T00:25:01.733Z,66.30
2022-10-18T00:27:29.692Z,60.50
2022-10-18T00:29:56.943Z,73.43
2022-10-18T00:32:38.482Z,68.30
2022-10-18T00:35:07.833Z,67.80
2022-10-18T00:41:39.522Z,74.17
2022-10-18T00:44:45.083Z,71.70
2022-10-18T00:47:15.764Z,79.30
2022-10-18T00:49:47.053Z,77.43
2022-10-18T00:52:18.304Z,91.63
2022-10-18T00:54:47.086Z,83.30
2022-10-18T00:57:14.867Z,90.17
2022-10-18T00:59:43.873Z,81.87
2022-10-18T01:02:11.446Z,87.37
2022-10-18T01:04:38.697Z,87.53
2022-10-18T01:07:15.371Z,91.97
2022-10-18T01:09:47.516Z,101.20
2022-10-18T01:12:22.089Z,90.73
2022-10-18T01:14:56.033Z,96.90
2022-10-18T01:17:29.601Z,94.17
2022-10-18T01:20:16.680Z,100.37
2022-10-18T01:22:50.743Z,106.43
2022-10-18T01:25:29.741Z,99.87
2022-10-18T01:28:04.791Z,112.70
2022-10-18T01:30:53.984Z,119.67
2022-10-18T01:33:30.460Z,114.47
2022-10-18T01:36:03.430Z,110.33
2022-10-18T01:38:33.039Z,110.80
2022-10-18T01:41:02.189Z,101.13
2022-10-18T01:43:31.525Z,110.57
2022-10-18T01:46:00.554Z,107.87
2022-10-18T01:48:29.541Z,118.17
2022-10-18T01:50:56.768Z,115.50
2022-10-18T01:53:30.267Z,115.00
2022-10-18T01:56:26.263Z,120.20
2022-10-18T01:59:03.088Z,116.67
2022-10-18T02:01:41.068Z,118.63
2022-10-18T02:04:19.174Z,108.17
2022-10-18T02:06:53.137Z,111.90
2022-10-18T02:09:30.218Z,110.63
2022-10-18T02:11:58.236Z,118.60
2022-10-18T02:14:26.706Z,112.00
2022-10-18T02:17:00.022Z,115.13
2022-10-18T02:19:31.555Z,108.33
2022-10-18T02:21:59.978Z,131.23
2022-10-18T02:24:34.457Z,126.90
2022-10-18T02:27:02.068Z,117.73
2022-10-18T02:29:30.607Z,126.63
2022-10-18T02:32:06.978Z,128.30
2022-10-18T02:34:39.627Z,123.80
2022-10-18T02:37:09.093Z,120.90
2022-10-18T02:39:42.340Z,121.47
2022-10-18T02:42:10.991Z,122.33
2022-10-18T02:44:38.800Z,144.77
2022-10-18T02:47:09.930Z,135.83
2022-10-18T02:49:37.264Z,130.27
2022-10-18T02:52:04.748Z,139.83
2022-10-18T02:54:32.074Z,124.97
2022-10-18T02:56:59.291Z,136.90
2022-10-18T02:59:26.529Z,152.67
2022-10-18T03:01:53.808Z,133.17
2022-10-18T03:04:22.568Z,143.67
2022-10-18T03:06:49.884Z,142.50
2022-10-18T03:09:17.132Z,145.20
2022-10-18T03:11:44.405Z,139.63
2022-10-18T03:14:11.665Z,135.87
2022-10-18T03:16:38.923Z,166.23
2022-10-18T03:19:06.204Z,181.40
2022-10-18T03:21:34.928Z,182.23
2022-10-18T03:24:02.248Z,243.20
2022-10-18T03:26:29.659Z,333.47
2022-10-18T03:28:57.026Z,427.67
2022-10-18T03:31:24.551Z,298.27
2022-10-18T03:33:52.058Z,301.10
2022-10-18T03:36:19.327Z,355.80
2022-10-18T03:38:47.878Z,302.43
2022-10-18T03:41:15.197Z,323.07
2022-10-18T03:43:42.402Z,296.97
2022-10-18T03:46:09.720Z,374.27
2022-10-18T03:48:36.998Z,382.00
2022-10-18T03:51:04.396Z,332.57
2022-10-18T03:53:31.711Z,247.50
2022-10-18T03:56:00.309Z,315.17
2022-10-18T03:58:27.745Z,412.07
2022-10-18T04:00:55.651Z,308.17
2022-10-18T04:03:23.244Z,296.53
2022-10-18T04:05:50.881Z,278.57
2022-10-18T04:08:18.867Z,232.87
2022-10-18T04:10:46.375Z,302.43
2022-10-18T04:13:15.248Z,339.80
2022-10-18T04:15:43.289Z,260.20
2022-10-18T04:18:10.540Z,380.20
2022-10-18T04:20:37.753Z,267.37
2022-10-18T04:23:04.948Z,263.17
2022-10-18T04:25:32.219Z,271.00
2022-10-18T04:27:59.568Z,332.47
2022-10-18T04:30:28.180Z,277.13
2022-10-18T04:32:55.402Z,366.67
2022-10-18T04:35:22.717Z,387.53
2022-10-18T04:37:50.000Z,331.67
2022-10-18T04:40:17.558Z,430.73
2022-10-18T04:42:44.869Z,343.97
2022-10-18T04:45:12.117Z,459.50
2022-10-18T04:47:40.727Z,592.77
2022-10-18T04:50:08.509Z,352.20
2022-10-18T04:52:35.803Z,266.83
2022-10-18T04:55:03.353Z,372.23
2022-10-18T04:57:30.869Z,249.57
2022-10-18T04:59:58.431Z,365.43
2022-10-18T05:02:25.867Z,167.33
2022-10-18T05:04:54.490Z,278.10
2022-10-18T05:07:21.772Z,196.27
2022-10-18T05:09:49.060Z,328.77
2022-10-18T05:12:16.345Z,1533.47
2022-10-18T05:14:43.628Z,216.67
2022-10-18T05:17:10.938Z,222.10
2022-10-18T05:19:38.216Z,239.40
2022-10-18T05:22:06.859Z,241.07
2022-10-18T05:24:34.129Z,164.13
2022-10-18T05:27:01.359Z,182.23
2022-10-18T05:29:28.614Z,168.87
2022-10-18T05:31:56.006Z,162.77
2022-10-18T05:34:23.358Z,140.97
2022-10-18T05:36:50.581Z,179.03
2022-10-18T05:39:19.177Z,178.23
2022-10-18T05:41:46.447Z,160.77
2022-10-18T05:44:13.664Z,132.03
2022-10-18T05:46:40.955Z,146.70
2022-10-18T05:49:09.548Z,181.97
2022-10-18T05:51:36.807Z,137.10
2022-10-18T05:54:04.516Z,141.57
2022-10-18T05:56:33.232Z,102.70
2022-10-18T05:59:00.529Z,1277.10
2022-10-18T06:01:27.789Z,139.03
2022-10-18T06:03:55.076Z,173.20
2022-10-18T06:06:22.284Z,160.70
2022-10-18T06:08:49.976Z,204.83
2022-10-18T06:11:19.010Z,134.77
2022-10-18T06:13:49.623Z,110.63
2022-10-18T06:16:19.051Z,113.67
2022-10-18T06:18:47.864Z,124.10
2022-10-18T06:21:15.906Z,150.73
2022-10-18T06:23:43.229Z,128.80
2022-10-18T06:26:11.437Z,130.00
2022-10-18T06:28:38.967Z,112.00
2022-10-18T06:31:07.753Z,105.37
2022-10-18T06:33:35.894Z,117.60
2022-10-18T06:36:05.629Z,413.50
2022-10-18T06:38:33.060Z,139.13
2022-10-18T06:41:00.654Z,110.27
2022-10-18T06:43:28.081Z,92.30
2022-10-18T06:45:55.635Z,104.80
2022-10-18T06:48:24.638Z,112.40
2022-10-18T06:50:53.683Z,127.73
2022-10-18T06:53:20.980Z,93.17
2022-10-18T06:55:48.215Z,130.63
2022-10-18T06:58:15.769Z,93.30
2022-10-18T07:00:43.051Z,108.83
2022-10-18T07:03:10.361Z,145.20
2022-10-18T07:05:39.197Z,162.60
2022-10-18T07:08:06.581Z,98.73
2022-10-18T07:10:33.912Z,141.07
2022-10-18T07:13:20.033Z,98.97
2022-10-18T07:15:48.606Z,103.37
2022-10-18T07:18:15.825Z,113.03
2022-10-18T07:20:44.562Z,107.93
2022-10-18T07:23:11.840Z,86.60
2022-10-18T07:25:39.061Z,92.70
2022-10-18T07:28:06.385Z,77.17
2022-10-18T07:30:34.494Z,85.90
2022-10-18T07:33:01.699Z,78.80
2022-10-18T07:35:28.923Z,69.63
2022-10-18T07:37:57.795Z,69.00
2022-10-18T07:40:25.074Z,55.83
2022-10-18T07:42:52.557Z,56.63
2022-10-18T07:45:19.931Z,61.70
2022-10-18T07:47:47.167Z,59.67
2022-10-18T07:50:14.627Z,78.20
2022-10-18T07:52:41.831Z,67.43
2022-10-18T07:55:10.618Z,62.87
2022-10-18T07:57:37.846Z,59.27
2022-10-18T08:00:06.263Z,65.07
2022-10-18T08:02:38.757Z,67.63
2022-10-18T08:05:06.236Z,59.47
2022-10-18T08:07:33.559Z,65.97
2022-10-18T08:10:01.091Z,60.40
2022-10-18T08:12:29.705Z,57.33
2022-10-18T08:14:57.047Z,57.37
2022-10-18T08:17:24.342Z,55.83
2022-10-18T08:20:04.763Z,46.10
2022-10-18T08:22:39.064Z,51.43
2022-10-18T08:25:07.571Z,44.40
2022-10-18T08:27:36.185Z,42.77
2022-10-18T08:30:03.806Z,41.30
2022-10-18T08:32:31.382Z,44.80
2022-10-18T08:34:58.868Z,37.40
2022-10-18T08:37:26.184Z,46.00
2022-10-18T08:39:53.394Z,40.53
2022-10-18T08:42:42.989Z,36.53
2022-10-18T08:45:29.743Z,36.47
2022-10-18T08:47:58.429Z,31.83
2022-10-18T08:50:31.170Z,27.33
2022-10-18T08:53:05.145Z,28.93
2022-10-18T08:55:39.431Z,29.80
2022-10-18T08:58:17.102Z,25.50
2022-10-18T09:00:50.015Z,27.47
2022-10-18T09:03:29.938Z,26.30
2022-10-18T09:06:08.080Z,22.80
2022-10-18T09:08:46.015Z,21.93
2022-10-18T09:11:31.051Z,21.33
2022-10-18T09:14:20.463Z,22.43
2022-10-18T09:16:55.556Z,25.57
2022-10-18T09:19:43.818Z,20.80
2022-10-18T09:22:14.175Z,30.10
2022-10-18T09:24:46.693Z,23.90
2022-10-18T09:27:16.969Z,29.87
2022-10-18T09:30:02.408Z,26.17
2022-10-18T09:32:47.347Z,27.07
2022-10-18T09:35:18.381Z,26.20
2022-10-18T09:37:47.086Z,23.27
2022-10-18T09:40:19.313Z,24.20
2022-10-18T09:42:55.214Z,26.07
2022-10-18T09:45:28.821Z,86.70
2022-10-18T09:48:03.935Z,20.73
2022-10-18T09:50:38.281Z,19.27
2022-10-18T09:53:16.917Z,23.07
2022-10-18T09:55:58.900Z,14.73
2022-10-18T09:58:33.540Z,16.03
2022-10-18T10:01:02.292Z,11.80
2022-10-18T10:03:30.145Z,14.80
2022-10-18T10:06:22.746Z,14.57
2022-10-18T10:08:57.091Z,12.33
2022-10-18T10:11:34.368Z,11.43
2022-10-18T10:14:19.000Z,15.30
2022-10-18T10:16:53.786Z,8.77
2022-10-18T10:19:24.803Z,7.57
2022-10-18T10:21:56.893Z,10.43
2022-10-18T10:24:31.148Z,6.70
2022-10-18T10:27:00.707Z,11.97
2022-10-18T10:30:01.409Z,9.70
2022-10-18T10:32:44.189Z,10.37
2022-10-18T10:38:24.441Z,14.83
2022-10-18T10:40:52.222Z,16.53
2022-10-18T10:43:40.442Z,16.50
2022-10-18T10:46:11.675Z,18.63
2022-10-18T10:48:49.346Z,15.83
2022-10-18T10:51:28.300Z,12.20
2022-10-18T10:54:00.236Z,13.27
2022-10-18T10:56:29.806Z,13.33
2022-10-18T10:59:01.753Z,9.67
2022-10-18T11:01:32.055Z,9.80
2022-10-18T11:04:02.642Z,8.73
2022-10-18T11:06:43.718Z,7.97
2022-10-18T11:09:27.521Z,8.37
2022-10-18T11:12:14.283Z,9.03
2022-10-18T11:14:46.001Z,10.27
2022-10-18T11:17:21.955Z,60.80
2022-10-18T11:20:03.814Z,8.77
2022-10-18T11:22:36.074Z,8.63
2022-10-18T11:25:04.375Z,10.83
2022-10-18T11:27:36.106Z,10.90
2022-10-18T11:30:19.306Z,10.63
2022-10-18T11:32:57.413Z,8.10
2022-10-18T11:35:38.698Z,7.10
2022-10-18T11:38:22.135Z,11.57
2022-10-18T11:41:03.307Z,12.50
2022-10-18T11:44:01.191Z,6.87
2022-10-18T11:46:41.345Z,6.23
2022-10-18T11:49:39.127Z,5.87
2022-10-18T11:52:13.694Z,8.60
2022-10-18T11:54:57.579Z,9.13
2022-10-18T11:57:39.456Z,8.53
2022-10-18T12:00:18.861Z,5.93
2022-10-18T12:02:59.738Z,5.30
2022-10-18T12:05:28.890Z,11.97
2022-10-18T12:08:01.931Z,11.43
2022-10-18T12:10:44.406Z,9.23
2022-10-18T12:13:25.636Z,9.60
2022-10-18T12:15:54.028Z,10.17
2022-10-18T12:18:25.360Z,10.03
2022-10-18T12:20:55.253Z,5.93
2022-10-18T12:23:35.327Z,4.77
2022-10-18T12:26:04.281Z,9.33
2022-10-18T12:28:42.909Z,7.20
2022-10-18T12:31:20.653Z,5.30
2022-10-18T12:33:51.025Z,11.93
2022-10-18T12:36:43.156Z,6.57
2022-10-18T12:39:27.292Z,5.70
2022-10-18T12:42:05.189Z,4.70
2022-10-18T12:44:34.119Z,6.63
2022-10-18T12:47:03.918Z,7.87
2022-10-18T12:49:34.797Z,7.53
2022-10-18T12:52:04.813Z,7.83
2022-10-18T12:54:35.462Z,6.90
2022-10-18T12:57:05.579Z,5.40
2022-10-18T12:59:50.708Z,7.50
2022-10-18T13:02:31.974Z,8.90
2022-10-18T13:07:37.317Z,4.97
2022-10-18T13:10:40.961Z,6.83
2022-10-18T13:13:38.792Z,4.63
2022-10-18T13:16:20.870Z,7.07
2022-10-18T13:18:53.969Z,2.47
2022-10-18T13:21:33.502Z,3.70
2022-10-18T13:24:25.820Z,5.13
2022-10-18T13:27:36.336Z,5.57
2022-10-18T13:30:27.485Z,4.17
2022-10-18T13:33:08.227Z,5.97
2022-10-18T13:35:48.521Z,7.17
2022-10-18T13:38:39.021Z,5.77
2022-10-18T13:41:09.017Z,4.80
2022-10-18T13:43:59.784Z,6.63
2022-10-18T13:47:00.325Z,9.30
2022-10-18T13:49:38.302Z,6.20
2022-10-18T13:52:18.260Z,5.63
2022-10-18T13:54:56.392Z,4.33
2022-10-18T13:57:44.192Z,3.67
2022-10-18T14:00:29.576Z,4.47
2022-10-18T14:03:55.059Z,6.73
2022-10-18T14:06:21.359Z,3.37
2022-10-18T14:08:55.438Z,4.23
2022-10-18T14:11:30.221Z,7.63
2022-10-18T14:14:07.836Z,5.10
2022-10-18T14:16:43.409Z,5.13
2022-10-18T14:19:21.936Z,7.40
2022-10-18T14:21:55.087Z,6.57
2022-10-18T14:24:25.179Z,8.40
2022-10-18T14:27:12.966Z,5.80
2022-10-18T14:29:40.524Z,5.10
2022-10-18T14:32:10.836Z,3.77
2022-10-18T14:34:38.614Z,5.80
2022-10-18T14:37:14.480Z,5.90
2022-10-18T14:39:41.873Z,7.23
2022-10-18T14:42:20.839Z,8.30
2022-10-18T14:44:51.772Z,3.27
2022-10-18T14:47:22.959Z,2.93
2022-10-18T14:49:51.513Z,4.63
2022-10-18T14:52:26.202Z,3.97
2022-10-18T14:54:55.417Z,6.13
2022-10-18T14:57:25.103Z,6.67
2022-10-18T14:59:55.289Z,6.47
2022-10-18T15:02:25.669Z,3.60
2022-10-18T15:04:58.878Z,5.93
2022-10-18T15:07:28.121Z,5.60
2022-10-18T15:09:57.628Z,38.77
2022-10-18T15:12:26.509Z,5.73
2022-10-18T15:14:54.384Z,13.70
2022-10-18T15:17:24.597Z,6.83
2022-10-18T15:19:59.399Z,6.80
2022-10-18T15:22:33.052Z,4.90
2022-10-18T15:25:15.667Z,8.20
2022-10-18T15:27:45.673Z,10.43
2022-10-18T15:30:18.581Z,4.50
2022-10-18T15:32:51.723Z,5.77
2022-10-18T15:35:26.088Z,5.80
2022-10-18T15:37:58.592Z,7.40
2022-10-18T15:40:35.642Z,9.03
2022-10-18T15:43:05.224Z,6.97
2022-10-18T15:45:36.203Z,5.63
2022-10-18T15:48:19.729Z,6.67
2022-10-18T15:50:48.569Z,7.53
2022-10-18T15:53:44.621Z,9.47
2022-10-18T15:56:27.217Z,5.37
2022-10-18T15:58:56.176Z,7.70
2022-10-18T16:01:29.038Z,7.67
2022-10-18T16:03:56.362Z,11.67
2022-10-18T16:06:23.626Z,11.17
2022-10-18T16:08:53.613Z,13.80
2022-10-18T16:11:22.687Z,15.30
2022-10-18T16:13:51.055Z,9.63
2022-10-18T16:16:21.962Z,12.47
2022-10-18T16:18:50.171Z,11.30
2022-10-18T16:21:19.487Z,12.30
2022-10-18T16:23:47.294Z,11.20
2022-10-18T16:26:17.523Z,8.43
2022-10-18T16:28:45.504Z,5.37
2022-10-18T16:33:51.294Z,14.43
2022-10-18T16:36:20.572Z,6.57
2022-10-18T16:38:48.272Z,10.77
2022-10-18T16:41:16.971Z,8.03
2022-10-18T16:43:45.928Z,8.97
2022-10-18T16:46:16.326Z,11.03
2022-10-18T16:48:44.359Z,6.10
2022-10-18T16:51:12.341Z,9.03
2022-10-18T16:53:39.582Z,6.97
2022-10-18T16:56:13.348Z,8.97
2022-10-18T16:58:42.289Z,9.77
2022-10-18T17:01:11.420Z,7.37
2022-10-18T17:03:38.832Z,15.47
2022-10-18T17:06:06.280Z,18.90
2022-10-18T17:08:33.608Z,10.50
2022-10-18T17:11:00.851Z,16.60
2022-10-18T17:13:28.249Z,8.80
2022-10-18T17:15:56.866Z,11.17
2022-10-18T17:18:25.397Z,10.27
2022-10-18T17:20:52.576Z,9.37
2022-10-18T17:23:20.230Z,9.77
2022-10-18T17:25:59.139Z,15.00
2022-10-18T17:28:32.525Z,8.47
2022-10-18T17:31:01.194Z,13.60
2022-10-18T17:33:28.469Z,12.33
2022-10-18T17:35:55.830Z,8.50
2022-10-18T17:38:23.179Z,9.27
2022-10-18T17:40:50.509Z,12.53
2022-10-18T17:43:17.735Z,9.73
2022-10-18T17:45:47.096Z,13.30
2022-10-18T17:48:15.743Z,17.00
2022-10-18T17:50:43.053Z,7.80
2022-10-18T17:53:10.711Z,16.63
2022-10-18T17:55:37.943Z,9.50
2022-10-18T17:58:05.582Z,7.17
2022-10-18T18:00:32.827Z,7.10
2022-10-18T18:03:00.584Z,7.43
2022-10-18T18:05:32.460Z,8.50
2022-10-18T18:08:03.803Z,7.07
2022-10-18T18:10:32.538Z,13.63
2022-10-18T18:13:00.114Z,8.00
2022-10-18T18:15:27.588Z,7.87
2022-10-18T18:17:58.343Z,7.30
2022-10-18T18:20:26.207Z,11.17
2022-10-18T18:22:54.831Z,8.23
2022-10-18T18:25:22.286Z,14.03
2022-10-18T18:27:49.624Z,24.87
2022-10-18T18:30:17.287Z,13.17
2022-10-18T18:32:44.628Z,21.23
2022-10-18T18:35:11.829Z,8.73
2022-10-18T18:37:39.143Z,12.83
2022-10-18T18:40:08.827Z,3.60
2022-10-18T18:42:36.300Z,7.70
2022-10-18T18:45:04.165Z,8.93
2022-10-18T18:47:31.346Z,8.60
2022-10-18T18:49:58.604Z,13.10
2022-10-18T18:52:25.915Z,5.90
2022-10-18T18:54:53.227Z,5.40
2022-10-18T18:57:22.003Z,7.33
2022-10-18T18:59:49.263Z,6.57
2022-10-18T19:02:16.495Z,7.23
2022-10-18T19:04:43.770Z,4.93
2022-10-18T19:07:11.220Z,5.83
2022-10-18T19:09:38.697Z,8.03
2022-10-18T19:12:06.017Z,4.70
2022-10-18T19:14:34.721Z,6.17
2022-10-18T19:17:02.151Z,5.50
2022-10-18T19:19:30.929Z,2.77
2022-10-18T19:22:00.041Z,2.47
2022-10-18T19:24:29.166Z,5.40
2022-10-18T19:26:58.687Z,8.20
2022-10-18T19:29:27.991Z,6.03
2022-10-18T19:31:58.708Z,4.40
2022-10-18T19:34:28.090Z,8.40
2022-10-18T19:36:55.778Z,4.53
2022-10-18T19:39:24.627Z,6.13
2022-10-18T19:41:58.278Z,16.03
2022-10-18T19:44:28.503Z,5.90
2022-10-18T19:46:57.291Z,5.27
2022-10-18T19:49:24.925Z,7.77
2022-10-18T19:51:52.319Z,7.33
2022-10-18T19:54:19.536Z,5.50
2022-10-18T19:56:47.246Z,5.87
2022-10-18T19:59:16.327Z,3.17
2022-10-18T20:01:44.403Z,8.47
2022-10-18T20:04:13.433Z,3.93
2022-10-18T20:06:41.763Z,4.63
2022-10-18T20:09:13.330Z,3.57
2022-10-18T20:11:43.596Z,5.87
2022-10-18T20:14:10.893Z,6.43
2022-10-18T20:16:38.204Z,4.10
2022-10-18T20:19:07.352Z,2.90
2022-10-18T20:21:36.632Z,3.47
2022-10-18T20:24:04.911Z,6.67
2022-10-18T20:26:32.757Z,2.27
2022-10-18T20:29:00.367Z,5.47
2022-10-18T20:31:29.803Z,2.93
2022-10-18T20:33:59.281Z,5.27
2022-10-18T20:36:28.581Z,4.20
2022-10-18T20:38:58.102Z,4.70
2022-10-18T20:41:28.034Z,5.37
2022-10-18T20:43:56.805Z,2.67
2022-10-18T20:46:24.961Z,3.90
2022-10-18T20:48:53.808Z,9.80
2022-10-18T20:51:21.595Z,36.17
2022-10-18T20:53:49.654Z,3.43
2022-10-18T20:56:20.543Z,2.87
2022-10-18T20:58:49.491Z,2.00
2022-10-18T21:01:18.903Z,4.60
2022-10-18T21:03:48.046Z,2.37
2022-10-18T21:06:20.363Z,3.07
2022-10-18T21:08:47.892Z,3.17
2022-10-18T21:11:15.243Z,3.87
2022-10-18T21:13:44.112Z,3.20
2022-10-18T21:16:11.347Z,5.67
2022-10-18T21:18:38.555Z,3.17
2022-10-18T21:21:11.054Z,1.60
2022-10-18T21:23:38.966Z,4.93
2022-10-18T21:26:06.999Z,4.27
2022-10-18T21:28:34.570Z,3.50
2022-10-18T21:31:12.040Z,2.47
2022-10-18T21:33:39.931Z,3.87
2022-10-18T21:36:07.551Z,4.77
2022-10-18T21:38:35.134Z,4.60
2022-10-18T21:41:07.904Z,3.83
2022-10-18T21:43:35.165Z,4.67
2022-10-18T21:46:02.668Z,4.27
2022-10-18T21:48:31.788Z,6.20
2022-10-18T21:51:02.855Z,5.77
2022-10-18T21:53:30.511Z,7.70
2022-10-18T21:56:04.579Z,7.00
2022-10-18T21:58:31.881Z,7.07
2022-10-18T22:00:59.228Z,4.47
2022-10-18T22:03:26.621Z,7.20
2022-10-18T22:06:00.239Z,4.00
2022-10-18T22:08:27.879Z,9.53
2022-10-18T22:10:57.135Z,7.10
2022-10-18T22:13:24.454Z,8.47
2022-10-18T22:15:52.252Z,14.40
2022-10-18T22:18:19.564Z,10.10
2022-10-18T22:20:54.181Z,11.53
2022-10-18T22:23:23.005Z,4.47
2022-10-18T22:25:50.320Z,6.27
2022-10-18T22:28:17.587Z,7.60
2022-10-18T22:30:44.760Z,4.20
2022-10-18T22:33:12.027Z,4.00
2022-10-18T22:35:39.315Z,5.23
2022-10-18T22:38:06.593Z,3.83
2022-10-18T22:40:35.236Z,6.50
2022-10-18T22:43:02.452Z,8.03
2022-10-18T22:45:29.872Z,5.70
2022-10-18T22:47:57.769Z,6.20
2022-10-18T22:50:25.070Z,7.83
2022-10-18T22:52:54.013Z,4.73
2022-10-18T22:55:22.505Z,6.73
2022-10-18T22:57:51.128Z,5.30
2022-10-18T23:00:18.518Z,7.20
2022-10-18T23:02:48.708Z,8.60
2022-10-18T23:05:16.231Z,5.67
2022-10-18T23:07:47.910Z,4.17
2022-10-18T23:10:15.356Z,4.37
2022-10-18T23:12:42.634Z,5.97
2022-10-18T23:15:12.022Z,6.70
2022-10-18T23:17:39.392Z,5.20
2022-10-18T23:20:07.401Z,6.17
2022-10-18T23:22:34.927Z,6.30
2022-10-18T23:25:02.454Z,7.63
2022-10-18T23:27:29.751Z,3.90
2022-10-18T23:29:57.424Z,4.43
2022-10-18T23:32:26.269Z,8.40
2022-10-18T23:34:53.568Z,6.27
2022-10-18T23:37:20.866Z,4.93
2022-10-18T23:39:48.118Z,4.17
2022-10-18T23:42:15.834Z,6.70
2022-10-18T23:44:43.879Z,5.77
2022-10-18T23:47:11.180Z,3.63
2022-10-18T23:49:39.926Z,4.10
2022-10-18T23:52:07.277Z,6.27
2022-10-18T23:54:34.871Z,6.20
2022-10-18T23:57:02.172Z,7.13
2022-10-18T23:59:29.437Z,4.83
